createdAt,value
2022-09-30T00:01:37.478Z,6.80
2022-09-30T00:04:05.214Z,6.80
2022-09-30T00:06:35.270Z,6.70
2022-09-30T00:09:03.762Z,6.70
2022-09-30T00:11:34.063Z,6.70
2022-09-30T00:14:02.880Z,6.60
2022-09-30T00:16:34.085Z,6.60
2022-09-30T00:19:04.284Z,6.60
2022-09-30T00:21:34.022Z,6.50
2022-09-30T00:24:03.265Z,6.50
2022-09-30T00:26:31.786Z,6.40
2022-09-30T00:29:02.334Z,6.40
2022-09-30T00:31:33.909Z,6.40
2022-09-30T00:34:07.688Z,6.40
2022-09-30T00:36:47.161Z,6.30
2022-09-30T00:39:18.478Z,6.30
2022-09-30T00:41:49.998Z,6.20
2022-09-30T00:44:55.453Z,6.10
2022-09-30T00:47:41.838Z,6.10
2022-09-30T00:50:30.035Z,6.10
2022-09-30T00:53:09.707Z,6.10
2022-09-30T00:55:50.153Z,6.10
2022-09-30T00:58:27.619Z,6.20
2022-09-30T01:00:56.016Z,6.00
2022-09-30T01:03:23.759Z,6.00
2022-09-30T01:05:52.721Z,5.90
2022-09-30T01:08:22.142Z,5.90
2022-09-30T01:10:49.680Z,5.90
2022-09-30T01:13:20.322Z,5.90
2022-09-30T01:16:12.588Z,5.90
2022-09-30T01:19:07.492Z,5.90
2022-09-30T01:22:06.279Z,5.90
2022-09-30T01:24:44.918Z,5.80
2022-09-30T01:27:12.451Z,5.80
2022-09-30T01:29:57.990Z,5.80
2022-09-30T01:32:43.743Z,5.80
2022-09-30T01:35:29.061Z,5.70
2022-09-30T01:38:13.628Z,5.70
2022-09-30T01:40:59.582Z,5.70
2022-09-30T01:43:38.690Z,5.70
2022-09-30T01:46:21.301Z,5.70
2022-09-30T01:49:02.050Z,5.70
2022-09-30T01:51:41.757Z,5.60
2022-09-30T01:54:25.437Z,5.60
2022-09-30T01:57:00.660Z,5.60
2022-09-30T01:59:36.335Z,5.50
2022-09-30T02:02:31.752Z,5.50
2022-09-30T02:05:02.939Z,5.40
2022-09-30T02:07:43.229Z,5.40
2022-09-30T02:10:35.670Z,5.40
2022-09-30T02:13:29.731Z,5.40
2022-09-30T02:16:12.923Z,5.40
2022-09-30T02:18:50.473Z,5.50
2022-09-30T02:21:27.253Z,5.50
2022-09-30T02:24:02.306Z,5.50
2022-09-30T02:26:35.154Z,5.40
2022-09-30T02:29:18.686Z,5.50
2022-09-30T02:31:49.890Z,5.50
2022-09-30T02:34:28.990Z,5.40
2022-09-30T02:37:07.565Z,5.40
2022-09-30T02:39:46.369Z,5.40
2022-09-30T02:42:32.767Z,5.40
2022-09-30T02:45:08.596Z,5.40
2022-09-30T02:47:48.273Z,5.50
2022-09-30T02:50:36.143Z,5.50
2022-09-30T02:53:19.043Z,5.40
2022-09-30T02:56:05.197Z,5.40
2022-09-30T02:58:34.906Z,5.40
2022-09-30T03:01:03.511Z,5.40
2022-09-30T03:03:38.209Z,5.40
2022-09-30T03:06:05.973Z,5.40
2022-09-30T03:08:33.660Z,5.30
2022-09-30T03:11:01.429Z,5.40
2022-09-30T03:14:03.946Z,5.40
2022-09-30T03:16:56.821Z,5.40
2022-09-30T03:19:45.746Z,5.40
2022-09-30T03:22:31.045Z,5.50
2022-09-30T03:25:04.521Z,5.50
2022-09-30T03:27:42.996Z,5.60
2022-09-30T03:30:18.560Z,5.70
2022-09-30T03:33:00.604Z,5.70
2022-09-30T03:35:47.473Z,5.80
2022-09-30T03:38:29.840Z,5.80
2022-09-30T03:41:13.955Z,6.00
2022-09-30T03:43:54.610Z,6.00
2022-09-30T03:46:22.112Z,6.00
2022-09-30T03:48:54.200Z,6.10
2022-09-30T03:51:24.952Z,6.20
2022-09-30T03:53:54.151Z,6.20
2022-09-30T03:56:43.475Z,6.20
2022-09-30T03:59:13.384Z,6.30
2022-09-30T04:01:41.167Z,6.30
2022-09-30T04:04:08.989Z,6.30
2022-09-30T04:06:36.470Z,6.30
2022-09-30T04:09:04.204Z,6.40
2022-09-30T04:11:31.761Z,6.40
2022-09-30T04:14:01.466Z,6.40
2022-09-30T04:16:30.089Z,6.40
2022-09-30T04:18:58.002Z,6.50
2022-09-30T04:21:26.148Z,6.50
2022-09-30T04:23:53.672Z,6.50
2022-09-30T04:26:21.845Z,6.50
2022-09-30T04:28:49.670Z,6.50
2022-09-30T04:31:19.595Z,6.60
2022-09-30T04:33:47.424Z,6.60
2022-09-30T04:36:15.050Z,6.70
2022-09-30T04:38:42.876Z,6.70
2022-09-30T04:41:16.108Z,6.70
2022-09-30T04:43:48.082Z,6.80
2022-09-30T04:46:18.175Z,6.80
2022-09-30T04:48:46.872Z,6.80
2022-09-30T04:51:20.566Z,6.80
2022-09-30T04:53:48.997Z,6.90
2022-09-30T04:56:17.002Z,6.90
2022-09-30T04:58:44.700Z,7.00
2022-09-30T05:01:15.009Z,7.00
2022-09-30T05:03:43.433Z,7.10
2022-09-30T05:06:11.789Z,7.10
2022-09-30T05:08:43.218Z,7.10
2022-09-30T05:11:21.405Z,7.20
2022-09-30T05:13:50.937Z,7.20
2022-09-30T05:16:19.076Z,7.10
2022-09-30T05:18:47.074Z,7.10
2022-09-30T05:21:17.083Z,7.20
2022-09-30T05:23:45.051Z,7.20
2022-09-30T05:26:13.417Z,7.20
2022-09-30T05:28:44.064Z,7.30
2022-09-30T05:31:13.529Z,7.40
2022-09-30T05:33:41.990Z,7.40
2022-09-30T05:36:13.841Z,7.50
2022-09-30T05:38:41.827Z,7.50
2022-09-30T05:41:14.297Z,7.60
2022-09-30T05:43:45.268Z,7.60
2022-09-30T05:46:13.106Z,7.70
2022-09-30T05:48:41.003Z,7.70
2022-09-30T05:51:09.478Z,7.70
2022-09-30T05:53:38.834Z,7.80
2022-09-30T05:56:07.741Z,7.80
2022-09-30T05:58:35.969Z,7.80
2022-09-30T06:01:13.546Z,7.80
2022-09-30T06:03:46.734Z,7.90
2022-09-30T06:06:15.432Z,7.90
2022-09-30T06:08:43.774Z,8.00
2022-09-30T06:11:14.362Z,8.10
2022-09-30T06:13:42.966Z,8.10
2022-09-30T06:16:12.766Z,8.20
2022-09-30T06:18:41.549Z,8.20
2022-09-30T06:21:12.134Z,8.40
2022-09-30T06:23:40.347Z,8.40
2022-09-30T06:26:09.624Z,8.50
2022-09-30T06:28:37.808Z,8.50
2022-09-30T06:31:06.014Z,8.60
2022-09-30T06:33:34.242Z,8.70
2022-09-30T06:36:04.564Z,8.70
2022-09-30T06:38:34.011Z,8.80
2022-09-30T06:41:01.573Z,8.90
2022-09-30T06:43:29.733Z,8.90
2022-09-30T06:46:10.109Z,9.00
2022-09-30T06:48:40.563Z,9.10
2022-09-30T06:51:11.151Z,9.20
2022-09-30T06:53:40.161Z,9.20
2022-09-30T06:56:08.228Z,9.30
2022-09-30T06:58:35.867Z,9.40
2022-09-30T07:01:05.224Z,9.40
2022-09-30T07:03:35.107Z,9.50
2022-09-30T07:06:05.880Z,9.60
2022-09-30T07:08:35.958Z,9.60
2022-09-30T07:11:14.368Z,9.70
2022-09-30T07:13:45.993Z,9.70
2022-09-30T07:16:15.006Z,9.70
2022-09-30T07:18:43.095Z,9.70
2022-09-30T07:21:12.347Z,9.80
2022-09-30T07:23:47.847Z,9.80
2022-09-30T07:26:17.861Z,9.80
2022-09-30T07:28:45.708Z,9.80
2022-09-30T07:31:33.071Z,9.80
2022-09-30T07:34:01.671Z,9.90
2022-09-30T07:36:33.937Z,9.90
2022-09-30T07:39:07.618Z,10.00
2022-09-30T07:41:38.948Z,10.00
2022-09-30T07:44:14.551Z,10.10
2022-09-30T07:46:43.924Z,10.10
2022-09-30T07:49:24.322Z,10.10
2022-09-30T07:51:55.605Z,10.10
2022-09-30T07:54:29.098Z,10.10
2022-09-30T07:57:09.675Z,10.10
2022-09-30T07:59:41.175Z,10.10
2022-09-30T08:02:14.386Z,10.10
2022-09-30T08:04:44.222Z,10.10
2022-09-30T08:07:14.024Z,10.10
2022-09-30T08:09:42.199Z,10.20
2022-09-30T08:12:10.209Z,10.20
2022-09-30T08:14:37.786Z,10.20
2022-09-30T08:17:05.388Z,10.30
2022-09-30T08:19:33.999Z,10.30
2022-09-30T08:24:30.457Z,10.40
2022-09-30T08:26:58.647Z,10.50
2022-09-30T08:32:13.873Z,10.60
2022-09-30T08:34:41.536Z,10.60
2022-09-30T08:37:10.459Z,10.60
2022-09-30T08:39:38.882Z,10.70
2022-09-30T08:42:35.964Z,10.70
2022-09-30T08:45:34.192Z,10.70
2022-09-30T08:48:26.890Z,10.70
2022-09-30T08:51:11.522Z,10.80
2022-09-30T08:53:43.296Z,10.80
2022-09-30T08:56:23.976Z,10.80
2022-09-30T08:58:57.087Z,10.80
2022-09-30T09:01:33.003Z,10.80
2022-09-30T09:04:03.117Z,10.90
2022-09-30T09:06:40.642Z,11.00
2022-09-30T09:09:43.114Z,11.00
2022-09-30T09:12:13.739Z,11.20
2022-09-30T09:14:56.489Z,11.30
2022-09-30T09:17:58.587Z,11.30
2022-09-30T09:20:36.435Z,11.40
2022-09-30T09:23:04.356Z,11.50
2022-09-30T09:25:32.269Z,11.60
2022-09-30T09:28:06.305Z,11.70
2022-09-30T09:30:43.577Z,11.70
2022-09-30T09:33:22.953Z,11.90
2022-09-30T09:36:23.254Z,12.00
2022-09-30T09:39:17.800Z,12.00
2022-09-30T09:42:22.753Z,12.10
2022-09-30T09:44:55.138Z,12.10
2022-09-30T09:47:22.630Z,12.10
2022-09-30T09:50:00.344Z,12.10
2022-09-30T09:53:06.944Z,12.20
2022-09-30T09:55:37.783Z,12.20
2022-09-30T09:58:07.787Z,12.30
2022-09-30T10:00:47.666Z,12.30
2022-09-30T10:03:20.030Z,12.40
2022-09-30T10:06:05.214Z,12.40
2022-09-30T10:08:54.347Z,12.50
2022-09-30T10:11:25.080Z,12.60
2022-09-30T10:13:57.838Z,12.70
2022-09-30T10:16:28.576Z,12.70
2022-09-30T10:18:56.610Z,12.70
2022-09-30T10:21:26.522Z,12.70
2022-09-30T10:23:54.778Z,12.80
2022-09-30T10:26:28.574Z,12.80
2022-09-30T10:29:01.693Z,12.80
2022-09-30T10:31:29.192Z,12.80
2022-09-30T10:34:29.190Z,12.80
2022-09-30T10:36:59.437Z,12.70
2022-09-30T10:39:38.729Z,12.70
2022-09-30T10:42:34.552Z,12.60
2022-09-30T10:45:10.684Z,12.60
2022-09-30T10:47:45.314Z,12.50
2022-09-30T10:50:17.215Z,12.40
2022-09-30T10:52:58.866Z,12.40
2022-09-30T10:55:41.586Z,12.30
2022-09-30T10:58:27.858Z,12.20
2022-09-30T11:01:07.399Z,12.20
2022-09-30T11:03:45.278Z,12.10
2022-09-30T11:06:15.510Z,12.00
2022-09-30T11:09:20.404Z,11.90
2022-09-30T11:11:57.910Z,11.90
2022-09-30T11:15:08.046Z,11.90
2022-09-30T11:18:12.261Z,11.90
2022-09-30T11:20:45.249Z,11.80
2022-09-30T11:23:40.528Z,11.80
2022-09-30T11:26:45.080Z,11.80
2022-09-30T11:29:18.723Z,11.80
2022-09-30T11:32:01.698Z,11.80
2022-09-30T11:34:55.604Z,11.80
2022-09-30T11:37:29.287Z,11.80
2022-09-30T11:40:30.124Z,11.80
2022-09-30T11:43:18.459Z,11.80
2022-09-30T11:45:54.105Z,11.90
2022-09-30T11:48:32.489Z,11.80
2022-09-30T11:51:05.768Z,11.90
2022-09-30T11:53:46.734Z,11.90
2022-09-30T11:56:40.620Z,11.90
2022-09-30T11:59:33.053Z,11.90
2022-09-30T12:02:04.293Z,11.90
2022-09-30T12:04:44.035Z,11.90
2022-09-30T12:07:15.120Z,11.90
2022-09-30T12:09:48.067Z,11.90
2022-09-30T12:12:19.164Z,12.00
2022-09-30T12:15:05.034Z,12.00
2022-09-30T12:17:42.214Z,12.00
2022-09-30T12:20:28.001Z,12.00
2022-09-30T12:23:21.018Z,12.00
2022-09-30T12:26:03.584Z,12.00
2022-09-30T12:29:16.346Z,12.00
2022-09-30T12:32:16.245Z,12.00
2022-09-30T12:35:11.599Z,12.00
2022-09-30T12:37:57.209Z,12.00
2022-09-30T12:40:53.066Z,12.00
2022-09-30T12:43:42.215Z,12.00
2022-09-30T12:46:13.853Z,12.00
2022-09-30T12:48:49.854Z,12.00
2022-09-30T12:51:32.932Z,12.00
2022-09-30T12:54:31.001Z,12.00
2022-09-30T12:57:03.447Z,12.00
2022-09-30T12:59:34.582Z,12.00
2022-09-30T13:02:04.451Z,12.00
2022-09-30T13:04:39.340Z,12.00
2022-09-30T13:07:09.816Z,12.00
2022-09-30T13:09:56.545Z,12.00
2022-09-30T13:12:40.548Z,12.00
2022-09-30T13:15:40.180Z,12.00
2022-09-30T13:18:20.037Z,11.90
2022-09-30T13:21:18.235Z,11.90
2022-09-30T13:23:52.717Z,11.90
2022-09-30T13:26:29.498Z,11.90
2022-09-30T13:29:00.022Z,11.80
2022-09-30T13:31:49.856Z,11.90
2022-09-30T13:34:49.572Z,11.90
2022-09-30T13:37:38.554Z,11.80
2022-09-30T13:40:16.085Z,11.80
2022-09-30T13:42:50.150Z,11.80
2022-09-30T13:45:31.300Z,11.80
2022-09-30T13:48:11.461Z,11.80
2022-09-30T13:50:47.334Z,11.80
2022-09-30T13:53:33.041Z,11.80
2022-09-30T13:56:06.580Z,11.80
2022-09-30T13:59:03.737Z,11.80
2022-09-30T14:01:38.815Z,11.80
2022-09-30T14:04:27.994Z,11.80
2022-09-30T14:07:20.414Z,11.70
2022-09-30T14:09:59.722Z,11.80
2022-09-30T14:12:46.503Z,11.80
2022-09-30T14:15:14.053Z,11.80
2022-09-30T14:17:59.698Z,11.80
2022-09-30T14:20:58.467Z,11.80
2022-09-30T14:23:26.255Z,11.70
2022-09-30T14:25:53.682Z,11.80
2022-09-30T14:29:04.889Z,11.80
2022-09-30T14:31:33.982Z,11.70
2022-09-30T14:34:02.160Z,11.80
2022-09-30T14:36:30.089Z,11.80
2022-09-30T14:39:00.337Z,11.80
2022-09-30T14:41:29.715Z,11.80
2022-09-30T14:44:07.930Z,11.80
2022-09-30T14:46:39.201Z,11.80
2022-09-30T14:49:13.177Z,11.80
2022-09-30T14:51:47.159Z,11.80
2022-09-30T14:54:18.171Z,11.80
2022-09-30T14:56:45.866Z,11.90
2022-09-30T14:59:27.745Z,11.80
2022-09-30T15:02:23.174Z,11.90
2022-09-30T15:04:59.166Z,11.90
2022-09-30T15:07:29.424Z,11.90
2022-09-30T15:10:01.849Z,11.90
2022-09-30T15:12:29.753Z,11.90
2022-09-30T15:14:59.592Z,12.00
2022-09-30T15:17:38.017Z,12.00
2022-09-30T15:20:37.847Z,12.00
2022-09-30T15:23:15.282Z,12.00
2022-09-30T15:25:43.394Z,12.10
2022-09-30T15:28:12.225Z,12.10
2022-09-30T15:30:43.230Z,12.10
2022-09-30T15:33:19.346Z,12.10
2022-09-30T15:35:47.036Z,12.20
2022-09-30T15:38:27.406Z,12.20
2022-09-30T15:41:10.750Z,12.20
2022-09-30T15:43:51.993Z,12.30
2022-09-30T15:46:26.868Z,12.30
2022-09-30T15:48:59.227Z,12.30
2022-09-30T15:51:33.026Z,12.30
2022-09-30T15:54:20.803Z,12.40
2022-09-30T15:56:48.364Z,12.40
2022-09-30T15:59:15.946Z,12.40
2022-09-30T16:01:48.738Z,12.50
2022-09-30T16:04:16.209Z,12.50
2022-09-30T16:06:51.869Z,12.50
2022-09-30T16:09:19.317Z,12.50
2022-09-30T16:11:59.325Z,12.50
2022-09-30T16:14:29.725Z,12.50
2022-09-30T16:17:00.310Z,12.60
2022-09-30T16:19:30.246Z,12.60
2022-09-30T16:25:46.595Z,12.60
2022-09-30T16:28:15.426Z,12.60
2022-09-30T16:30:54.288Z,12.70
2022-09-30T16:43:19.925Z,12.70
2022-09-30T16:45:48.225Z,12.80
2022-09-30T16:48:17.913Z,12.80
2022-09-30T16:51:08.625Z,12.80
2022-09-30T16:53:37.408Z,12.90
2022-09-30T16:56:05.399Z,12.90
2022-09-30T16:58:32.961Z,12.90
2022-09-30T17:01:00.652Z,12.90
2022-09-30T17:03:28.648Z,13.00
2022-09-30T17:05:56.140Z,13.00
2022-09-30T17:08:24.240Z,13.00
2022-09-30T17:10:51.986Z,13.00
2022-09-30T17:13:19.853Z,13.00
2022-09-30T17:15:51.744Z,13.00
2022-09-30T17:18:19.993Z,13.10
2022-09-30T17:20:52.757Z,13.10
2022-09-30T17:23:22.184Z,13.10
2022-09-30T17:25:50.108Z,13.10
2022-09-30T17:28:18.241Z,13.10
2022-09-30T17:30:48.008Z,13.20
2022-09-30T17:33:16.806Z,13.20
2022-09-30T17:35:44.449Z,13.20
2022-09-30T17:38:13.463Z,13.20
2022-09-30T17:40:59.708Z,13.20
2022-09-30T17:43:27.266Z,13.10
2022-09-30T17:45:59.692Z,13.10
2022-09-30T17:48:27.347Z,13.10
2022-09-30T17:50:55.978Z,13.10
2022-09-30T17:53:23.909Z,13.10
2022-09-30T17:56:10.236Z,13.00
2022-09-30T17:58:38.396Z,13.00
2022-09-30T18:01:10.092Z,13.00
2022-09-30T18:03:37.763Z,13.00
2022-09-30T18:06:05.566Z,12.90
2022-09-30T18:08:34.263Z,12.90
2022-09-30T18:11:01.995Z,12.90
2022-09-30T18:13:30.026Z,12.90
2022-09-30T18:16:02.081Z,12.80
2022-09-30T18:18:29.966Z,12.80
2022-09-30T18:20:57.528Z,12.70
2022-09-30T18:23:25.199Z,12.70
2022-09-30T18:25:56.257Z,12.70
2022-09-30T18:28:23.884Z,12.60
2022-09-30T18:30:51.627Z,12.60
2022-09-30T18:33:21.601Z,12.60
2022-09-30T18:35:49.624Z,12.60
2022-09-30T18:38:17.235Z,12.50
2022-09-30T18:40:45.752Z,12.40
2022-09-30T18:43:14.669Z,12.40
2022-09-30T18:45:46.405Z,12.30
2022-09-30T18:48:14.549Z,12.30
2022-09-30T18:50:42.167Z,12.20
2022-09-30T18:53:12.870Z,12.20
2022-09-30T18:55:43.928Z,12.20
2022-09-30T18:58:11.770Z,12.10
2022-09-30T19:00:39.830Z,12.10
2022-09-30T19:03:10.591Z,12.10
2022-09-30T19:05:38.190Z,12.00
2022-09-30T19:08:06.093Z,12.00
2022-09-30T19:10:34.270Z,12.00
2022-09-30T19:13:02.149Z,12.00
2022-09-30T19:15:30.362Z,12.00
2022-09-30T19:17:58.679Z,12.00
2022-09-30T19:20:26.876Z,12.00
2022-09-30T19:22:54.747Z,12.00
2022-09-30T19:25:22.346Z,12.00
2022-09-30T19:27:50.486Z,12.00
2022-09-30T19:30:19.107Z,11.90
2022-09-30T19:32:46.852Z,12.00
2022-09-30T19:35:14.905Z,11.90
2022-09-30T19:37:55.696Z,11.90
2022-09-30T19:40:28.090Z,11.90
2022-09-30T19:42:55.627Z,11.90
2022-09-30T19:45:26.246Z,11.90
2022-09-30T19:47:54.280Z,11.90
2022-09-30T19:50:22.760Z,11.90
2022-09-30T19:52:56.700Z,11.90
2022-09-30T19:55:25.984Z,11.90
2022-09-30T19:57:54.367Z,11.90
2022-09-30T20:00:22.255Z,11.90
2022-09-30T20:02:50.823Z,11.90
2022-09-30T20:05:18.626Z,11.90
2022-09-30T20:07:46.429Z,11.80
2022-09-30T20:10:14.413Z,11.80
2022-09-30T20:12:43.548Z,11.70
2022-09-30T20:15:29.640Z,11.70
2022-09-30T20:17:57.174Z,11.70
2022-09-30T20:20:37.190Z,11.60
2022-09-30T20:23:05.430Z,11.60
2022-09-30T20:25:34.929Z,11.60
2022-09-30T20:28:04.403Z,11.60
2022-09-30T20:30:33.416Z,11.70
2022-09-30T20:33:02.135Z,11.70
2022-09-30T20:35:30.287Z,11.70
2022-09-30T20:37:57.849Z,11.70
2022-09-30T20:40:25.878Z,11.70
2022-09-30T20:42:55.188Z,11.70
2022-09-30T20:45:25.830Z,11.70
2022-09-30T20:47:54.378Z,11.70
2022-09-30T20:50:37.636Z,11.60
2022-09-30T20:53:08.737Z,11.70
2022-09-30T20:55:38.568Z,11.70
2022-09-30T20:58:07.960Z,11.70
2022-09-30T21:00:37.838Z,11.60
2022-09-30T21:03:08.136Z,11.60
2022-09-30T21:05:35.684Z,11.60
2022-09-30T21:08:03.875Z,11.60
2022-09-30T21:10:31.962Z,11.50
2022-09-30T21:13:01.250Z,11.50
2022-09-30T21:15:31.260Z,11.50
2022-09-30T21:17:58.853Z,11.50
2022-09-30T21:20:26.499Z,11.50
2022-09-30T21:22:54.101Z,11.50
2022-09-30T21:25:22.084Z,11.50
2022-09-30T21:27:50.268Z,11.40
2022-09-30T21:30:19.352Z,11.40
2022-09-30T21:32:47.280Z,11.40
2022-09-30T21:35:15.533Z,11.40
2022-09-30T21:37:43.506Z,11.40
2022-09-30T21:40:12.219Z,11.40
2022-09-30T21:42:39.759Z,11.40
2022-09-30T21:45:08.271Z,11.40
2022-09-30T21:47:35.795Z,11.40
2022-09-30T21:50:03.407Z,11.40
2022-09-30T21:52:32.931Z,11.40
2022-09-30T21:55:00.746Z,11.30
2022-09-30T21:57:29.091Z,11.40
2022-09-30T21:59:56.618Z,11.40
2022-09-30T22:02:24.271Z,11.40
2022-09-30T22:04:51.902Z,11.40
2022-09-30T22:07:19.474Z,11.40
2022-09-30T22:09:47.003Z,11.40
2022-09-30T22:12:14.532Z,11.40
2022-09-30T22:14:42.039Z,11.50
2022-09-30T22:17:09.979Z,11.50
2022-09-30T22:19:38.188Z,11.50
2022-09-30T22:22:05.960Z,11.50
2022-09-30T22:24:33.571Z,11.50
2022-09-30T22:27:01.102Z,11.40
2022-09-30T22:29:29.670Z,11.40
2022-09-30T22:31:57.224Z,11.40
2022-09-30T22:34:43.466Z,11.40
2022-09-30T22:37:29.394Z,11.30
2022-09-30T22:40:00.715Z,11.30
2022-09-30T22:42:29.271Z,11.40
2022-09-30T22:44:56.846Z,11.40
2022-09-30T22:47:24.379Z,11.40
2022-09-30T22:49:51.919Z,11.40
2022-09-30T22:52:20.476Z,11.40
2022-09-30T22:54:48.033Z,11.50
2022-09-30T22:57:16.241Z,11.50
2022-09-30T22:59:44.670Z,11.50
2022-09-30T23:02:12.272Z,11.50
2022-09-30T23:04:39.821Z,11.50
2022-09-30T23:07:08.228Z,11.50
2022-09-30T23:09:35.695Z,11.50
2022-09-30T23:12:03.320Z,11.40
2022-09-30T23:14:30.848Z,11.40
2022-09-30T23:16:58.546Z,11.40
2022-09-30T23:19:26.159Z,11.30
2022-09-30T23:21:53.668Z,11.30
2022-09-30T23:24:21.192Z,11.30
2022-09-30T23:26:48.751Z,11.30
2022-09-30T23:29:16.539Z,11.30
2022-09-30T23:31:44.134Z,11.30
2022-09-30T23:34:12.060Z,11.30
2022-09-30T23:36:39.699Z,11.30
2022-09-30T23:39:20.214Z,11.20
2022-09-30T23:41:49.119Z,11.20
2022-09-30T23:44:19.005Z,11.20
2022-09-30T23:47:05.953Z,11.20
2022-09-30T23:49:35.882Z,11.20
2022-09-30T23:52:11.954Z,11.20
2022-09-30T23:54:42.108Z,11.20
2022-09-30T23:57:10.870Z,11.20
2022-09-30T23:59:39.204Z,11.10
